Falling Spring, Virginia
Current Conditions -  °F | °C
As of 7:35 AM on Sunday 23 Nov 2014 (Local Time) from KHSP Reporting Station
Scattered Clouds Scattered Clouds  
Wind Chill: 44°   Ceiling: Unl
Heat Index: 47°   Visibility: 10mi
Dew Point: 36°   Wind: 7mph
Humidity: 64%   Direction: 220°SW
Pressure: 30.16"   Gusts: NA
Location:  37.9738°N, 79.8988°W
Report Text: KHSP 231235Z AUTO 22006KT 10SM SCT085 09/02 A3016 RMK AO2 T00860022
Loading
Personal Weather Stations






























Interactive Weather Map New forecast layout! Learn more

10-Day Weather Forecast

Advertisements
Track Severe Weather on mobile